Airfield :
LOGIN :

Register | Disclaimer

   EN    FR    IT 

 










Legend :    VFR   Marginal VFR   IFR   Intensive IFR   Very Intensive IFR
Visi :
Ceiling :
>= 8 km
>= 3000ft
5 to 8 km
1000 to 3000 ft
1500m to 5 km
500 to 1000 ft
800 to 1500m
200 to 500 ft
< 800m
< 200 ft
Symbols :   Thunderstorms  Fog  Heavy snow  Heavy precipitations  Wind > 20 kt
SIGMETs :     Misc.  Thunderstorms  Icing  Turbulence  Mountain Waves  Volcanic Ashes






- Airport Elevation : 209 ft
- IATA code : CLY


LFKC - Calvi

CURRENT METAR :
  • 130930Z AUTO 21018G32KT 170V240 9999 -RA FEW021 BKN026 BKN037 14/11 Q0992 TEMPO 4000 SHRA BKN013 SCT030TCU

EXPIRED METARs :
  • 130900Z AUTO 20020G33KT 9999 -RA BKN022 BKN028 BKN039 13/10 Q0992 TEMPO 4000 SHRA BKN013 SCT030TCU
  • 130830Z AUTO 20016KT 170V230 5000 RA BR SCT025/// BKN031/// BKN046/// ///CB 13/10 Q0992 TEMPO 23022G40KT
  • 130800Z AUTO 20014KT 9999 BKN024 BKN030 BKN046 13/10 Q0993 TEMPO 23022G40KT 4000 SHRA BKN015 SCT030CB
  • 130730Z AUTO 21015G26KT 9999 FEW019 BKN024 BKN030 13/10 Q0993 TEMPO 23022G40KT 4000 SHRA BKN015 SCT030CB
  • 130700Z AUTO 20011KT 170V230 4500 RA BR BKN020/// BKN027/// BKN039/// ///TCU 12/10 Q0993 TEMPO BKN015 SCT030CB BECMG 22015G25KT

TAF TAF LFKC
Valid from the 13 at 09:00 until the 14 at 09:00 UTC


130800Z 1309/1409 21015G25KT 9999 SCT020 BKN040
TEMPO 1309/1312 4000 SHRA BKN013 SCT030TCU
TEMPO 1309/1312 21020G35KT
BECMG 1312/1314 24020G35KT CAVOK
TEMPO 1314/1321 24022G40KT
BECMG 1322/1324 21012KT BKN025
BECMG 1402/1404 21015G25KT
ATIS : +33 4 95 65 82 49



MET'MAP, your aeronautical weather chart ! - Copyright ORBIFLY December 2007 - Disclaimer

ORBIFLY MET'MAP TEAM :

Programming & Development : Alexandra Zaïnal
Concept & original design : Baudouin d'Aumeries
Assistance for programming : Marc-Olivier Méhu
Technical & hardware support : Manuel Goepfert

Contact : metmap@orbifly.com




SOURCES & CREDITS :

   NOAA